createdAt,value
2023-07-03T00:00:13.447Z,18.35
2023-07-03T00:02:40.895Z,12.07
2023-07-03T00:05:12.428Z,13.05
2023-07-03T00:07:40.411Z,20.23
2023-07-03T00:10:08.651Z,16.45
2023-07-03T00:12:35.977Z,15.77
2023-07-03T00:15:03.146Z,16.38
2023-07-03T00:17:30.049Z,14.20
2023-07-03T00:19:56.901Z,9.95
2023-07-03T00:22:23.987Z,13.23
2023-07-03T00:24:50.807Z,11.68
2023-07-03T00:27:18.343Z,17.58
2023-07-03T00:29:45.385Z,12.43
2023-07-03T00:32:12.500Z,16.77
2023-07-03T00:34:39.428Z,15.90
2023-07-03T00:37:06.388Z,12.98
2023-07-03T00:39:33.642Z,13.95
2023-07-03T00:42:01.133Z,23.13
2023-07-03T00:44:27.989Z,18.73
2023-07-03T00:46:54.802Z,14.77
2023-07-03T00:49:21.905Z,17.23
2023-07-03T00:51:54.863Z,14.32
2023-07-03T00:54:21.955Z,18.63
2023-07-03T00:56:48.824Z,21.83
2023-07-03T00:59:16.566Z,13.13
2023-07-03T01:01:46.403Z,21.75
2023-07-03T01:04:16.631Z,14.60
2023-07-03T01:06:58.048Z,12.88
2023-07-03T01:11:54.004Z,18.33
2023-07-03T01:14:23.824Z,19.70
2023-07-03T01:16:52.068Z,21.77
2023-07-03T01:19:25.301Z,25.33
2023-07-03T01:22:25.416Z,17.98
2023-07-03T01:24:56.843Z,26.15
2023-07-03T01:27:29.583Z,21.33
2023-07-03T01:29:58.676Z,21.25
2023-07-03T01:32:29.860Z,22.00
2023-07-03T01:34:58.738Z,21.65
2023-07-03T01:37:27.832Z,23.42
2023-07-03T01:39:56.825Z,21.00
2023-07-03T01:42:26.964Z,23.00
2023-07-03T01:44:53.805Z,21.48
2023-07-03T01:47:21.673Z,23.70
2023-07-03T01:49:50.105Z,21.17
2023-07-03T01:52:16.805Z,18.88
2023-07-03T01:55:00.167Z,18.58
2023-07-03T01:57:53.764Z,26.42
2023-07-03T02:00:29.761Z,15.20
2023-07-03T02:03:00.602Z,15.00
2023-07-03T02:05:31.680Z,21.23
2023-07-03T02:08:01.768Z,24.83
2023-07-03T02:10:28.766Z,24.92
2023-07-03T02:12:55.697Z,17.20
2023-07-03T02:15:22.636Z,20.58
2023-07-03T02:17:53.385Z,32.00
2023-07-03T02:20:20.525Z,24.42
2023-07-03T02:22:47.387Z,22.52
2023-07-03T02:25:14.492Z,17.35
2023-07-03T02:27:44.426Z,18.83
2023-07-03T02:30:12.409Z,20.95
2023-07-03T02:32:41.480Z,19.15
2023-07-03T02:35:10.006Z,24.98
2023-07-03T02:37:37.788Z,19.60
2023-07-03T02:40:14.413Z,20.88
2023-07-03T02:42:41.955Z,20.83
2023-07-03T02:45:09.296Z,21.50
2023-07-03T02:47:39.659Z,20.20
2023-07-03T02:50:08.665Z,27.10
2023-07-03T02:52:35.545Z,19.17
2023-07-03T02:55:02.399Z,19.33
2023-07-03T02:57:29.732Z,21.45
2023-07-03T02:59:56.672Z,19.30
2023-07-03T03:02:23.524Z,21.38
2023-07-03T03:04:50.471Z,18.70
2023-07-03T03:07:17.336Z,21.33
2023-07-03T03:09:44.306Z,21.25
2023-07-03T03:12:11.155Z,30.92
2023-07-03T03:14:38.274Z,27.23
2023-07-03T03:17:05.288Z,24.73
2023-07-03T03:19:32.139Z,19.73
2023-07-03T03:21:58.978Z,19.33
2023-07-03T03:24:26.911Z,17.48
2023-07-03T03:26:53.765Z,20.83
2023-07-03T03:29:20.655Z,25.27
2023-07-03T03:31:47.441Z,26.02
2023-07-03T03:34:14.249Z,21.92
2023-07-03T03:36:41.448Z,28.40
2023-07-03T03:39:08.510Z,24.23
2023-07-03T03:41:35.309Z,25.10
2023-07-03T03:44:02.154Z,18.55
2023-07-03T03:46:28.976Z,21.42
2023-07-03T03:48:55.870Z,25.58
2023-07-03T03:51:23.017Z,17.70
2023-07-03T03:53:49.919Z,21.70
2023-07-03T03:56:16.784Z,28.45
2023-07-03T03:58:43.577Z,28.40
2023-07-03T04:01:10.340Z,23.15
2023-07-03T04:03:37.137Z,21.67
2023-07-03T04:06:04.034Z,33.00
2023-07-03T04:08:31.174Z,26.77
2023-07-03T04:10:58.902Z,32.50
2023-07-03T04:13:25.931Z,35.63
2023-07-03T04:15:55.919Z,32.35
2023-07-03T04:18:24.543Z,28.80
2023-07-03T04:20:52.032Z,25.98
2023-07-03T04:23:19.586Z,23.05
2023-07-03T04:25:46.472Z,36.13
2023-07-03T04:28:14.341Z,23.48
2023-07-03T04:30:41.143Z,30.08
2023-07-03T04:33:08.022Z,30.48
2023-07-03T04:35:35.014Z,30.50
2023-07-03T04:38:02.656Z,21.40
2023-07-03T04:40:31.100Z,24.50
2023-07-03T04:42:58.585Z,23.30
2023-07-03T04:45:26.963Z,28.25
2023-07-03T04:47:54.433Z,27.13
2023-07-03T04:50:26.438Z,21.17
2023-07-03T04:52:55.553Z,20.27
2023-07-03T04:55:23.671Z,19.67
2023-07-03T04:57:50.940Z,15.70
2023-07-03T05:00:20.414Z,18.60
2023-07-03T05:02:49.420Z,15.38
2023-07-03T05:05:18.473Z,17.80
2023-07-03T05:07:46.480Z,20.08
2023-07-03T05:10:15.644Z,19.08
2023-07-03T05:12:42.599Z,17.45
2023-07-03T05:15:11.030Z,16.77
2023-07-03T05:17:40.178Z,16.65
2023-07-03T05:20:15.258Z,18.73
2023-07-03T05:22:44.830Z,24.67
2023-07-03T05:25:13.627Z,12.55
2023-07-03T05:27:40.836Z,16.48
2023-07-03T05:30:09.565Z,16.65
2023-07-03T05:32:37.256Z,13.95
2023-07-03T05:35:05.436Z,13.73
2023-07-03T05:37:33.328Z,17.65
2023-07-03T05:40:00.248Z,11.88
2023-07-03T05:42:27.202Z,9.52
2023-07-03T05:44:53.984Z,15.40
2023-07-03T05:47:20.887Z,16.55
2023-07-03T05:49:49.742Z,13.20
2023-07-03T05:52:16.756Z,8.43
2023-07-03T05:54:43.532Z,15.48
2023-07-03T05:57:12.233Z,15.32
2023-07-03T05:59:41.179Z,10.60
2023-07-03T06:02:12.918Z,11.55
2023-07-03T06:04:40.071Z,12.52
2023-07-03T06:07:07.875Z,13.30
2023-07-03T06:09:36.533Z,10.52
2023-07-03T06:12:05.213Z,14.75
2023-07-03T06:14:33.285Z,10.50
2023-07-03T06:17:00.724Z,19.95
2023-07-03T06:19:29.539Z,16.65
2023-07-03T06:21:56.850Z,12.48
2023-07-03T06:24:23.960Z,7.85
2023-07-03T06:26:52.340Z,8.55
2023-07-03T06:29:19.686Z,12.23
2023-07-03T06:31:46.709Z,11.45
2023-07-03T06:34:13.609Z,8.05
2023-07-03T06:36:40.721Z,12.43
2023-07-03T06:39:09.568Z,11.43
2023-07-03T06:41:37.067Z,9.88
2023-07-03T06:44:05.410Z,5.68
2023-07-03T06:46:32.543Z,7.22
2023-07-03T06:48:59.482Z,12.50
2023-07-03T06:51:26.659Z,13.52
2023-07-03T06:53:53.527Z,10.88
2023-07-03T06:56:21.249Z,9.98
2023-07-03T06:58:51.957Z,12.50
2023-07-03T07:01:30.056Z,9.13
2023-07-03T07:03:57.611Z,6.65
2023-07-03T07:06:30.397Z,8.35
2023-07-03T07:08:58.049Z,9.38
2023-07-03T07:11:31.959Z,13.05
2023-07-03T07:14:00.635Z,8.23
2023-07-03T07:16:33.200Z,10.68
2023-07-03T07:19:04.910Z,7.50
2023-07-03T07:21:34.989Z,11.23
2023-07-03T07:24:12.600Z,6.35
2023-07-03T07:26:39.482Z,8.27
2023-07-03T07:29:06.287Z,8.80
2023-07-03T07:31:33.383Z,6.63
2023-07-03T07:34:00.249Z,3.30
2023-07-03T07:36:27.887Z,7.38
2023-07-03T07:38:56.631Z,5.68
2023-07-03T07:41:26.718Z,4.60
2023-07-03T07:43:54.907Z,3.70
2023-07-03T07:46:26.566Z,2.15
2023-07-03T07:48:53.724Z,4.45
2023-07-03T07:51:20.522Z,8.88
2023-07-03T07:53:47.393Z,4.72
2023-07-03T07:56:15.182Z,5.78
2023-07-03T07:58:41.973Z,4.55
2023-07-03T08:01:12.211Z,8.48
2023-07-03T08:03:40.915Z,5.82
2023-07-03T08:06:07.898Z,2.03
2023-07-03T08:08:35.129Z,6.25
2023-07-03T08:11:05.290Z,10.48
2023-07-03T08:13:34.142Z,9.80
2023-07-03T08:16:01.335Z,9.15
2023-07-03T08:18:28.919Z,7.63
2023-07-03T08:20:55.869Z,14.32
2023-07-03T08:23:23.103Z,7.80
2023-07-03T08:25:52.514Z,8.52
2023-07-03T08:28:19.680Z,7.43
2023-07-03T08:30:47.518Z,14.02
2023-07-03T08:33:15.665Z,11.02
2023-07-03T08:38:12.920Z,10.25
2023-07-03T08:40:40.161Z,9.70
2023-07-03T08:43:12.230Z,8.02
2023-07-03T08:45:42.668Z,9.57
2023-07-03T08:48:18.183Z,9.90
2023-07-03T08:50:48.774Z,13.40
2023-07-03T08:53:20.643Z,9.77
2023-07-03T08:55:54.500Z,9.68
2023-07-03T08:58:21.502Z,4.65
2023-07-03T09:01:13.154Z,10.88
2023-07-03T09:04:07.309Z,11.65
2023-07-03T09:07:06.616Z,10.20
2023-07-03T09:09:58.910Z,9.43
2023-07-03T09:12:31.674Z,12.68
2023-07-03T09:15:07.479Z,10.52
2023-07-03T09:17:35.544Z,12.98
2023-07-03T09:20:05.348Z,7.22
2023-07-03T09:22:53.990Z,8.80
2023-07-03T09:25:46.668Z,11.10
2023-07-03T09:28:13.865Z,8.27
2023-07-03T09:30:40.977Z,11.15
2023-07-03T09:33:08.412Z,18.98
2023-07-03T09:35:37.810Z,9.00
2023-07-03T09:38:10.502Z,17.15
2023-07-03T09:40:39.782Z,18.27
2023-07-03T09:43:14.961Z,16.25
2023-07-03T09:45:44.461Z,17.02
2023-07-03T09:48:23.085Z,17.95
2023-07-03T09:51:05.679Z,14.77
2023-07-03T09:53:40.108Z,18.23
2023-07-03T09:56:17.330Z,18.60
2023-07-03T09:58:50.765Z,15.93
2023-07-03T10:07:07.878Z,16.05
2023-07-03T10:12:13.465Z,28.00
2023-07-03T10:14:40.700Z,14.68
2023-07-03T10:17:13.850Z,13.43
2023-07-03T10:19:44.727Z,12.75
2023-07-03T10:22:15.573Z,17.02
2023-07-03T10:24:44.186Z,14.63
2023-07-03T10:27:14.659Z,10.30
2023-07-03T10:29:47.884Z,21.42
2023-07-03T10:32:17.377Z,9.93
2023-07-03T10:34:58.897Z,13.20
2023-07-03T10:37:27.444Z,9.23
2023-07-03T10:40:01.627Z,10.10
2023-07-03T10:42:38.293Z,9.43
2023-07-03T10:45:14.679Z,12.20
2023-07-03T10:47:50.029Z,11.35
2023-07-03T10:50:20.361Z,12.95
2023-07-03T10:53:03.841Z,11.10
2023-07-03T10:55:43.576Z,15.07
2023-07-03T10:58:22.574Z,16.15
2023-07-03T11:01:19.855Z,18.60
2023-07-03T11:04:15.905Z,19.05
2023-07-03T11:07:14.972Z,23.42
2023-07-03T11:09:50.240Z,15.25
2023-07-03T11:12:43.970Z,15.02
2023-07-03T11:15:38.772Z,15.57
2023-07-03T11:24:07.761Z,16.02
2023-07-03T11:29:14.827Z,12.77
2023-07-03T11:31:44.546Z,10.63
2023-07-03T11:36:57.178Z,7.65
2023-07-03T11:44:47.668Z,14.93
2023-07-03T11:47:24.212Z,10.07
2023-07-03T11:49:54.843Z,20.83
2023-07-03T11:52:32.279Z,13.00
2023-07-03T11:55:06.912Z,18.42
2023-07-03T11:57:38.008Z,16.10
2023-07-03T12:02:49.986Z,13.40
2023-07-03T12:05:50.999Z,5.95
2023-07-03T12:08:24.222Z,4.35
2023-07-03T12:10:51.025Z,3.35
2023-07-03T12:13:28.258Z,6.10
2023-07-03T12:15:59.963Z,10.95
2023-07-03T12:18:27.393Z,9.38
2023-07-03T12:21:03.113Z,15.55
2023-07-03T12:23:33.019Z,8.95
2023-07-03T12:26:02.985Z,9.30
2023-07-03T12:28:30.200Z,9.43
2023-07-03T12:31:23.270Z,10.55
2023-07-03T12:33:59.228Z,16.63
2023-07-03T12:36:38.666Z,12.30
2023-07-03T12:39:16.071Z,8.88
2023-07-03T12:41:43.093Z,11.00
2023-07-03T12:44:14.503Z,14.15
2023-07-03T12:46:45.835Z,13.85
2023-07-03T12:49:15.553Z,8.93
2023-07-03T12:51:51.521Z,11.18
2023-07-03T12:54:18.984Z,7.05
2023-07-03T12:56:46.367Z,8.15
2023-07-03T12:59:17.824Z,11.10
2023-07-03T13:01:53.318Z,9.60
2023-07-03T13:04:34.544Z,8.77
2023-07-03T13:07:03.782Z,13.25
2023-07-03T13:09:32.981Z,16.38
2023-07-03T13:12:00.026Z,11.00
2023-07-03T13:14:29.308Z,19.40
2023-07-03T13:17:02.422Z,9.10
2023-07-03T13:19:36.636Z,8.15
2023-07-03T13:22:11.021Z,13.35
2023-07-03T13:24:49.060Z,11.93
2023-07-03T13:27:24.732Z,7.75
2023-07-03T13:29:58.896Z,9.32
2023-07-03T13:32:26.801Z,8.43
2023-07-03T13:34:56.841Z,7.72
2023-07-03T13:37:26.672Z,13.13
2023-07-03T13:40:01.293Z,8.88
2023-07-03T13:42:30.363Z,8.25
2023-07-03T13:44:57.119Z,11.70
2023-07-03T13:47:26.550Z,9.70
2023-07-03T13:49:55.419Z,6.72
2023-07-03T13:52:22.207Z,9.32
2023-07-03T13:54:49.225Z,3.97
2023-07-03T13:57:16.088Z,11.82
2023-07-03T13:59:42.876Z,8.50
2023-07-03T14:02:09.673Z,11.90
2023-07-03T14:04:36.680Z,6.25
2023-07-03T14:07:03.609Z,11.75
2023-07-03T14:09:30.385Z,12.27
2023-07-03T14:11:57.303Z,8.05
2023-07-03T14:14:24.471Z,9.27
2023-07-03T14:16:53.040Z,11.82
2023-07-03T14:19:20.156Z,12.10
2023-07-03T14:21:46.923Z,12.27
2023-07-03T14:24:13.790Z,12.60
2023-07-03T14:26:41.493Z,14.88
2023-07-03T14:29:08.316Z,10.75
2023-07-03T14:31:36.162Z,17.40
2023-07-03T14:34:03.149Z,15.57
2023-07-03T14:36:29.947Z,13.73
2023-07-03T14:38:56.710Z,12.57
2023-07-03T14:41:23.737Z,12.30
2023-07-03T14:43:50.664Z,11.77
2023-07-03T14:46:17.501Z,12.45
2023-07-03T14:48:44.364Z,8.27
2023-07-03T14:51:11.231Z,10.85
2023-07-03T14:53:38.462Z,5.90
2023-07-03T14:56:06.008Z,10.48
2023-07-03T14:58:32.613Z,12.07
2023-07-03T15:01:03.760Z,13.13
2023-07-03T15:03:31.656Z,15.30
2023-07-03T15:05:58.730Z,7.93
2023-07-03T15:08:27.139Z,12.00
2023-07-03T15:10:54.234Z,12.30
2023-07-03T15:13:21.072Z,11.27
2023-07-03T15:15:49.941Z,9.75
2023-07-03T15:18:17.238Z,11.18
2023-07-03T15:20:44.232Z,13.88
2023-07-03T15:23:11.067Z,15.38
2023-07-03T15:25:38.015Z,13.75
2023-07-03T15:28:04.998Z,12.73
2023-07-03T15:30:31.807Z,9.88
2023-07-03T15:32:58.635Z,13.80
2023-07-03T15:35:25.419Z,8.88
2023-07-03T15:37:52.289Z,8.88
2023-07-03T15:40:19.147Z,18.25
2023-07-03T15:42:46.847Z,9.23
2023-07-03T15:45:14.576Z,8.40
2023-07-03T15:47:45.034Z,13.57
2023-07-03T15:50:11.983Z,11.85
2023-07-03T15:52:38.728Z,12.73
2023-07-03T15:55:06.241Z,17.52
2023-07-03T15:57:33.070Z,16.35
2023-07-03T16:00:00.165Z,17.55
2023-07-03T16:02:27.011Z,16.27
2023-07-03T16:04:54.583Z,19.70
2023-07-03T16:07:21.346Z,13.75
2023-07-03T16:09:48.151Z,18.27
2023-07-03T16:12:15.772Z,18.33
2023-07-03T16:14:43.775Z,12.25
2023-07-03T16:17:10.665Z,9.80
2023-07-03T16:19:37.607Z,15.10
2023-07-03T16:22:04.712Z,17.30
2023-07-03T16:24:31.772Z,16.48
2023-07-03T16:26:58.609Z,11.85
2023-07-03T16:29:25.478Z,11.68
2023-07-03T16:31:54.267Z,11.70
2023-07-03T16:34:21.141Z,12.70
2023-07-03T16:36:47.979Z,11.55
2023-07-03T16:39:17.364Z,13.45
2023-07-03T16:41:44.280Z,14.35
2023-07-03T16:44:11.128Z,14.10
2023-07-03T16:46:40.120Z,11.25
2023-07-03T16:49:07.908Z,14.07
2023-07-03T16:51:34.691Z,9.75
2023-07-03T16:54:02.487Z,12.60
2023-07-03T16:56:29.799Z,14.70
2023-07-03T16:58:59.144Z,10.70
2023-07-03T17:01:29.610Z,12.30
2023-07-03T17:03:57.406Z,9.37
2023-07-03T17:06:32.898Z,7.70
2023-07-03T17:09:01.047Z,7.10
2023-07-03T17:11:28.254Z,9.85
2023-07-03T17:13:55.572Z,12.00
2023-07-03T17:16:22.869Z,12.30
2023-07-03T17:18:49.877Z,13.13
2023-07-03T17:21:16.943Z,11.38
2023-07-03T17:23:44.512Z,12.38
2023-07-03T17:26:12.274Z,9.13
2023-07-03T17:28:39.597Z,10.95
2023-07-03T17:31:06.669Z,18.73
2023-07-03T17:33:33.977Z,11.55
2023-07-03T17:36:02.987Z,9.35
2023-07-03T17:38:30.484Z,11.30
2023-07-03T17:40:57.294Z,10.13
2023-07-03T17:43:24.335Z,8.43
2023-07-03T17:45:54.290Z,9.93
2023-07-03T17:48:22.386Z,14.10
2023-07-03T17:50:51.175Z,10.38
2023-07-03T17:53:22.097Z,10.93
2023-07-03T17:55:49.270Z,6.80
2023-07-03T17:58:16.689Z,10.23
2023-07-03T18:00:43.477Z,6.72
2023-07-03T18:03:10.420Z,10.85
2023-07-03T18:05:37.764Z,9.85
2023-07-03T18:08:05.315Z,7.43
2023-07-03T18:10:34.225Z,9.52
2023-07-03T18:13:01.900Z,8.40
2023-07-03T18:15:43.637Z,7.18
2023-07-03T18:18:15.713Z,6.40
2023-07-03T18:20:42.560Z,6.47
2023-07-03T18:23:09.894Z,3.85
2023-07-03T18:25:36.816Z,9.55
2023-07-03T18:28:04.721Z,7.38
2023-07-03T18:30:31.889Z,8.80
2023-07-03T18:32:58.811Z,7.40
2023-07-03T18:35:25.887Z,8.85
2023-07-03T18:37:53.435Z,11.57
2023-07-03T18:40:20.609Z,10.02
2023-07-03T18:42:47.356Z,12.93
2023-07-03T18:45:14.280Z,15.15
2023-07-03T18:47:41.228Z,13.57
2023-07-03T18:50:08.840Z,17.70
2023-07-03T18:52:35.671Z,10.57
2023-07-03T18:55:02.533Z,14.23
2023-07-03T18:57:29.284Z,11.63
2023-07-03T18:59:56.031Z,19.48
2023-07-03T19:02:22.823Z,17.05
2023-07-03T19:04:49.749Z,15.00
2023-07-03T19:07:16.541Z,15.00
2023-07-03T19:09:43.417Z,10.32
2023-07-03T19:12:10.334Z,13.77
2023-07-03T19:14:37.243Z,17.23
2023-07-03T19:17:05.146Z,13.25
2023-07-03T19:19:32.024Z,13.25
2023-07-03T19:21:58.815Z,14.13
2023-07-03T19:24:25.605Z,11.82
2023-07-03T19:26:52.456Z,19.45
2023-07-03T19:29:19.416Z,12.48
2023-07-03T19:31:46.290Z,10.63
2023-07-03T19:34:13.108Z,12.23
2023-07-03T19:36:39.976Z,16.17
2023-07-03T19:39:06.814Z,8.32
2023-07-03T19:41:33.569Z,13.18
2023-07-03T19:44:01.388Z,13.32
2023-07-03T19:46:28.210Z,13.38
2023-07-03T19:48:58.268Z,8.52
2023-07-03T19:51:25.275Z,13.02
2023-07-03T19:53:52.068Z,16.05
2023-07-03T19:56:21.360Z,15.82
2023-07-03T19:58:51.381Z,11.57
2023-07-03T20:01:18.759Z,10.43
2023-07-03T20:03:45.987Z,13.05
2023-07-03T20:06:14.988Z,10.25
2023-07-03T20:08:41.865Z,11.60
2023-07-03T20:11:10.190Z,11.20
2023-07-03T20:13:37.302Z,11.20
2023-07-03T20:16:04.495Z,12.75
2023-07-03T20:18:32.706Z,16.08
2023-07-03T20:21:04.063Z,17.35
2023-07-03T20:23:31.219Z,6.40
2023-07-03T20:25:58.968Z,10.13
2023-07-03T20:28:26.352Z,15.85
2023-07-03T20:30:55.184Z,8.93
2023-07-03T20:33:22.314Z,10.45
2023-07-03T20:36:03.607Z,7.97
2023-07-03T20:38:31.048Z,8.25
2023-07-03T20:41:00.766Z,10.50
2023-07-03T20:43:28.538Z,10.15
2023-07-03T20:46:04.934Z,13.82
2023-07-03T20:48:33.279Z,10.77
2023-07-03T20:51:03.572Z,21.55
2023-07-03T20:53:40.957Z,9.38
2023-07-03T20:56:09.578Z,11.00
2023-07-03T20:58:41.446Z,10.60
2023-07-03T21:01:15.099Z,14.93
2023-07-03T21:03:46.752Z,7.13
2023-07-03T21:06:18.870Z,17.52
2023-07-03T21:08:46.934Z,17.60
2023-07-03T21:11:16.578Z,12.45
2023-07-03T21:13:45.086Z,14.27
2023-07-03T21:16:14.494Z,14.93
2023-07-03T21:18:42.361Z,8.68
2023-07-03T21:21:13.298Z,18.65
2023-07-03T21:23:40.690Z,14.75
2023-07-03T21:26:08.472Z,12.35
2023-07-03T21:28:35.444Z,8.30
2023-07-03T21:31:02.305Z,15.27
2023-07-03T21:33:30.267Z,18.15
2023-07-03T21:36:16.304Z,12.38
2023-07-03T21:38:43.968Z,14.15
2023-07-03T21:41:16.310Z,10.20
2023-07-03T21:43:50.172Z,15.60
2023-07-03T21:46:19.324Z,17.73
2023-07-03T21:48:46.947Z,9.13
2023-07-03T21:51:18.684Z,13.25
2023-07-03T21:53:49.382Z,9.75
2023-07-03T21:56:20.942Z,14.07
2023-07-03T21:58:50.782Z,10.57
2023-07-03T22:01:31.382Z,16.08
2023-07-03T22:03:59.352Z,20.50
2023-07-03T22:06:27.703Z,12.13
2023-07-03T22:08:55.784Z,21.67
2023-07-03T22:11:23.679Z,16.10
2023-07-03T22:13:50.903Z,14.00
2023-07-03T22:16:18.855Z,15.93
2023-07-03T22:18:46.198Z,13.40
2023-07-03T22:21:13.788Z,18.55
2023-07-03T22:23:40.631Z,14.13
2023-07-03T22:26:08.374Z,21.02
2023-07-03T22:28:35.189Z,14.80
2023-07-03T22:31:02.158Z,19.55
2023-07-03T22:33:30.343Z,25.33
2023-07-03T22:35:57.137Z,18.52
2023-07-03T22:38:24.044Z,19.60
2023-07-03T22:40:51.714Z,20.65
2023-07-03T22:43:20.379Z,13.10
2023-07-03T22:45:47.910Z,13.57
2023-07-03T22:48:14.874Z,12.05
2023-07-03T22:50:42.975Z,18.30
2023-07-03T22:53:11.142Z,19.15
2023-07-03T22:55:41.734Z,16.40
2023-07-03T22:58:11.911Z,13.03
2023-07-03T23:00:40.164Z,14.98
2023-07-03T23:03:08.195Z,14.85
2023-07-03T23:05:40.393Z,10.73
2023-07-03T23:08:07.259Z,13.70
2023-07-03T23:10:34.114Z,20.50
2023-07-03T23:13:00.953Z,11.80
2023-07-03T23:15:28.313Z,24.20
2023-07-03T23:17:55.152Z,21.73
2023-07-03T23:20:22.585Z,14.23
2023-07-03T23:22:49.403Z,17.85
2023-07-03T23:25:16.373Z,14.07
2023-07-03T23:27:44.703Z,10.30
2023-07-03T23:30:11.778Z,14.65
2023-07-03T23:32:39.176Z,14.13
2023-07-03T23:35:06.564Z,15.90
2023-07-03T23:37:33.370Z,10.20
2023-07-03T23:40:01.066Z,12.57
2023-07-03T23:42:27.956Z,12.80
2023-07-03T23:44:54.749Z,14.40
2023-07-03T23:47:21.744Z,21.92
2023-07-03T23:49:50.519Z,9.63
2023-07-03T23:52:17.396Z,7.20
2023-07-03T23:54:44.188Z,9.07
2023-07-03T23:57:12.197Z,5.72
2023-07-03T23:59:39.013Z,14.07
